Fort Wainwright, AK

3:32 PM AKDT on September 01, 2014 (GMT -0800)
Ladd Army Air Field | Change Station
CLOSE
Current Station
Airport
Location: Fairbanks Ft. Wainwright,
Elevation: 453 ft
Nearby Weather Stations
Active Advisory: Wind Advisory, Special Statement

Elev 453 ft 64.84 °N, 147.61 °W | Updated 9 hours ago

Rain
Rain
41 °F
Feels Like 41 °F
N
6
Wind Variable Wind from South
Gusts mph

Today
High -- | Low -- °F
--% Chance of Precip.
Yesterday
High -- | Low -- °F
Precip. -- in
6:30 AM 9:07 PM
Waxing Crescent, 45% visible
Pressure 29.86 in
Visibility 10.0 miles
Clouds Clear
Dew Point 39 °F
Humidity 87%
Rainfall 0.00 in
Snow Depth Not available.
UV 0 out of 12
Pollen Not available.
Air Quality Not available.
Flu Activity Not available.
METAR PAFB 011356Z AUTO 07005KT 10SM CLR 01/M01 A2985 RMK SLP112 T00111006 $ VIA AUTODIAL

More Conditions Fewer Conditions

Pressure 29.86 in
Visibility 10.0 miles
Clouds Clear
Dew Point 39 °F
Humidity 87%
Rainfall 0.00 in
Snow Depth Not available.
UV 0 out of 12
Pollen Not available.
Air Quality Not available.
Flu Activity Not available.
METAR PAFB 011356Z AUTO 07005KT 10SM CLR 01/M01 A2985 RMK SLP112 T00111006 $ VIA AUTODIAL

More Conditions Fewer Conditions

10-Day Weather Forecast

Almanac

Astronomy

Sep. 01, 2014 Rise Set
Actual Time 6:30 AM AKDT 9:07 PM AKDT
Civil Twilight 5:35 AM AKDT 10:02 PM AKDT
Nautical Twilight 4:17 AM AKDT 11:18 PM AKDT
Astronomical Twilight 2:22 AM AKDT 1:17 AM AKDT
Moon 4:05 PM AKDT 10:36 PM AKDT
Length of Visible Light 16h 26m
Length of Day
14h 36m
Tomorrow will be 6m 44s shorter.
Waxing Crescent, 45% of the Moon is Illuminated
Today
Waxing Crescent
Sep 2
First Quarter
Sep 8
Full
Sep 15
Last Quarter
Sep 24
New

Today's Extremes

State Highs State Lows

Community

WunderPhotos

Upload Photos

1,749,440 photos uploaded!

Nearby

Snow Depth

Station Depth Elevation
Little Chena Ridge 1 in 2000 ft
Munson Ridge 1 in 3100 ft
Monument Creek 0 in 1850 ft
Eagle Summit 0 in 3650 ft
Upper Chena 1 in 2850 ft

Earthquake Activity

City Distance Mag. Time & Date
No recent earthquake activity has been reported nearby.
Minimum magnitude displayed is 2.5.

Coastal Water Temperatures

Place Temperature
No Stations Reporting

Nearby Weather Stations